sensor_id;sensor_type;location;lat;lon;timestamp;P1;durP1;ratioP1;P2;durP2;ratioP2
68212;SDS011;55035;47.792;8.724;2023-04-03T00:01:49;8.85;;;3.72;;
68212;SDS011;55035;47.792;8.724;2023-04-03T00:04:16;8.13;;;3.08;;
68212;SDS011;55035;47.792;8.724;2023-04-03T00:06:42;7.93;;;3.25;;
68212;SDS011;55035;47.792;8.724;2023-04-03T00:09:09;9.35;;;3.90;;
68212;SDS011;55035;47.792;8.724;2023-04-03T00:11:36;8.68;;;3.58;;
68212;SDS011;55035;47.792;8.724;2023-04-03T00:14:04;8.38;;;2.80;;
68212;SDS011;55035;47.792;8.724;2023-04-03T00:16:31;7.63;;;2.87;;
68212;SDS011;55035;47.792;8.724;2023-04-03T00:18:58;7.68;;;2.90;;
68212;SDS011;55035;47.792;8.724;2023-04-03T00:21:24;8.32;;;2.83;;
68212;SDS011;55035;47.792;8.724;2023-04-03T00:23:51;7.47;;;3.35;;
68212;SDS011;55035;47.792;8.724;2023-04-03T00:26:18;6.90;;;2.50;;
68212;SDS011;55035;47.792;8.724;2023-04-03T00:28:46;8.48;;;2.70;;
68212;SDS011;55035;47.792;8.724;2023-04-03T00:31:15;9.35;;;3.15;;
68212;SDS011;55035;47.792;8.724;2023-04-03T00:33:43;8.63;;;3.10;;
68212;SDS011;55035;47.792;8.724;2023-04-03T00:36:10;10.48;;;3.63;;
68212;SDS011;55035;47.792;8.724;2023-04-03T00:38:37;10.68;;;3.50;;
68212;SDS011;55035;47.792;8.724;2023-04-03T00:41:05;10.75;;;4.65;;
68212;SDS011;55035;47.792;8.724;2023-04-03T00:43:32;10.80;;;4.07;;
68212;SDS011;55035;47.792;8.724;2023-04-03T00:45:59;9.60;;;3.95;;
68212;SDS011;55035;47.792;8.724;2023-04-03T00:48:27;10.73;;;4.80;;
68212;SDS011;55035;47.792;8.724;2023-04-03T00:50:56;8.25;;;3.20;;
68212;SDS011;55035;47.792;8.724;2023-04-03T00:53:26;8.57;;;3.43;;
68212;SDS011;55035;47.792;8.724;2023-04-03T00:55:54;10.18;;;3.95;;
68212;SDS011;55035;47.792;8.724;2023-04-03T00:58:23;10.90;;;4.47;;
68212;SDS011;55035;47.792;8.724;2023-04-03T01:00:54;9.93;;;3.90;;
68212;SDS011;55035;47.792;8.724;2023-04-03T01:03:23;9.07;;;3.08;;
68212;SDS011;55035;47.792;8.724;2023-04-03T01:05:52;7.50;;;3.17;;
68212;SDS011;55035;47.792;8.724;2023-04-03T01:08:21;8.27;;;2.90;;
68212;SDS011;55035;47.792;8.724;2023-04-03T01:10:48;8.05;;;2.55;;
68212;SDS011;55035;47.792;8.724;2023-04-03T01:13:20;9.90;;;3.90;;
68212;SDS011;55035;47.792;8.724;2023-04-03T01:15:47;7.55;;;3.03;;
68212;SDS011;55035;47.792;8.724;2023-04-03T01:18:14;7.80;;;3.33;;
68212;SDS011;55035;47.792;8.724;2023-04-03T01:20:57;7.57;;;3.00;;
68212;SDS011;55035;47.792;8.724;2023-04-03T01:23:25;9.23;;;3.38;;
68212;SDS011;55035;47.792;8.724;2023-04-03T01:25:56;8.60;;;3.50;;
68212;SDS011;55035;47.792;8.724;2023-04-03T01:28:24;9.25;;;3.63;;
68212;SDS011;55035;47.792;8.724;2023-04-03T01:30:53;7.83;;;2.77;;
68212;SDS011;55035;47.792;8.724;2023-04-03T01:33:22;8.10;;;3.55;;
68212;SDS011;55035;47.792;8.724;2023-04-03T01:35:49;6.65;;;2.83;;
68212;SDS011;55035;47.792;8.724;2023-04-03T01:38:16;9.98;;;3.90;;
68212;SDS011;55035;47.792;8.724;2023-04-03T01:40:43;7.95;;;3.47;;
68212;SDS011;55035;47.792;8.724;2023-04-03T01:43:10;10.43;;;4.00;;
68212;SDS011;55035;47.792;8.724;2023-04-03T01:45:37;9.82;;;4.53;;
68212;SDS011;55035;47.792;8.724;2023-04-03T01:48:04;10.43;;;5.10;;
68212;SDS011;55035;47.792;8.724;2023-04-03T01:50:32;9.75;;;4.13;;
68212;SDS011;55035;47.792;8.724;2023-04-03T01:52:59;10.05;;;4.38;;
68212;SDS011;55035;47.792;8.724;2023-04-03T01:55:26;9.50;;;3.60;;
68212;SDS011;55035;47.792;8.724;2023-04-03T01:57:53;9.88;;;4.10;;
68212;SDS011;55035;47.792;8.724;2023-04-03T02:00:21;10.60;;;4.80;;
68212;SDS011;55035;47.792;8.724;2023-04-03T02:02:49;9.70;;;4.00;;
68212;SDS011;55035;47.792;8.724;2023-04-03T02:05:16;9.48;;;3.88;;
68212;SDS011;55035;47.792;8.724;2023-04-03T02:07:44;9.23;;;3.63;;
68212;SDS011;55035;47.792;8.724;2023-04-03T02:10:12;7.95;;;3.28;;
68212;SDS011;55035;47.792;8.724;2023-04-03T02:12:39;8.88;;;3.50;;
68212;SDS011;55035;47.792;8.724;2023-04-03T02:15:06;12.35;;;3.30;;
68212;SDS011;55035;47.792;8.724;2023-04-03T02:17:35;8.73;;;3.20;;
68212;SDS011;55035;47.792;8.724;2023-04-03T02:20:02;9.70;;;3.42;;
68212;SDS011;55035;47.792;8.724;2023-04-03T02:22:29;10.65;;;3.38;;
68212;SDS011;55035;47.792;8.724;2023-04-03T02:24:58;8.30;;;3.38;;
68212;SDS011;55035;47.792;8.724;2023-04-03T02:27:25;10.10;;;4.15;;
68212;SDS011;55035;47.792;8.724;2023-04-03T02:29:51;7.55;;;2.97;;
68212;SDS011;55035;47.792;8.724;2023-04-03T02:32:19;9.40;;;3.83;;
68212;SDS011;55035;47.792;8.724;2023-04-03T02:34:46;10.35;;;4.32;;
68212;SDS011;55035;47.792;8.724;2023-04-03T02:37:14;8.32;;;4.05;;
68212;SDS011;55035;47.792;8.724;2023-04-03T02:39:44;11.20;;;4.22;;
68212;SDS011;55035;47.792;8.724;2023-04-03T02:42:13;11.18;;;4.65;;
68212;SDS011;55035;47.792;8.724;2023-04-03T02:44:39;11.07;;;4.50;;
68212;SDS011;55035;47.792;8.724;2023-04-03T02:47:08;11.40;;;4.80;;
68212;SDS011;55035;47.792;8.724;2023-04-03T02:49:35;9.45;;;3.88;;
68212;SDS011;55035;47.792;8.724;2023-04-03T02:52:02;9.65;;;4.05;;
68212;SDS011;55035;47.792;8.724;2023-04-03T02:54:28;8.68;;;3.20;;
68212;SDS011;55035;47.792;8.724;2023-04-03T02:56:59;10.33;;;3.87;;
68212;SDS011;55035;47.792;8.724;2023-04-03T02:59:27;10.07;;;4.05;;
68212;SDS011;55035;47.792;8.724;2023-04-03T03:01:54;9.70;;;4.03;;
68212;SDS011;55035;47.792;8.724;2023-04-03T03:04:21;11.27;;;4.50;;
68212;SDS011;55035;47.792;8.724;2023-04-03T03:06:48;10.48;;;4.40;;
68212;SDS011;55035;47.792;8.724;2023-04-03T03:09:14;9.67;;;4.17;;
68212;SDS011;55035;47.792;8.724;2023-04-03T03:11:41;9.88;;;4.35;;
68212;SDS011;55035;47.792;8.724;2023-04-03T03:14:08;11.00;;;4.45;;
68212;SDS011;55035;47.792;8.724;2023-04-03T03:16:36;10.38;;;4.35;;
68212;SDS011;55035;47.792;8.724;2023-04-03T03:19:03;12.60;;;5.05;;
68212;SDS011;55035;47.792;8.724;2023-04-03T03:21:30;10.00;;;4.03;;
68212;SDS011;55035;47.792;8.724;2023-04-03T03:23:57;11.27;;;4.13;;
68212;SDS011;55035;47.792;8.724;2023-04-03T03:26:24;9.43;;;4.07;;
68212;SDS011;55035;47.792;8.724;2023-04-03T03:28:51;9.43;;;3.75;;
68212;SDS011;55035;47.792;8.724;2023-04-03T03:31:18;10.52;;;4.15;;
68212;SDS011;55035;47.792;8.724;2023-04-03T03:33:46;10.18;;;4.72;;
68212;SDS011;55035;47.792;8.724;2023-04-03T03:36:13;10.55;;;4.40;;
68212;SDS011;55035;47.792;8.724;2023-04-03T03:38:40;10.07;;;4.15;;
68212;SDS011;55035;47.792;8.724;2023-04-03T03:41:08;11.40;;;4.82;;
68212;SDS011;55035;47.792;8.724;2023-04-03T03:43:35;13.93;;;5.00;;
68212;SDS011;55035;47.792;8.724;2023-04-03T03:46:04;11.40;;;4.53;;
68212;SDS011;55035;47.792;8.724;2023-04-03T03:48:31;8.82;;;3.60;;
68212;SDS011;55035;47.792;8.724;2023-04-03T03:51:00;11.98;;;4.95;;
68212;SDS011;55035;47.792;8.724;2023-04-03T03:53:30;9.95;;;4.10;;
68212;SDS011;55035;47.792;8.724;2023-04-03T03:56:02;9.75;;;3.90;;
68212;SDS011;55035;47.792;8.724;2023-04-03T03:58:30;10.80;;;4.47;;
68212;SDS011;55035;47.792;8.724;2023-04-03T04:00:59;10.15;;;4.32;;
68212;SDS011;55035;47.792;8.724;2023-04-03T04:03:26;9.45;;;3.95;;
68212;SDS011;55035;47.792;8.724;2023-04-03T04:05:53;10.77;;;4.60;;
68212;SDS011;55035;47.792;8.724;2023-04-03T04:08:22;11.27;;;4.25;;
68212;SDS011;55035;47.792;8.724;2023-04-03T04:10:49;10.83;;;4.77;;
68212;SDS011;55035;47.792;8.724;2023-04-03T04:13:17;9.57;;;4.07;;
68212;SDS011;55035;47.792;8.724;2023-04-03T04:15:44;10.93;;;4.20;;
68212;SDS011;55035;47.792;8.724;2023-04-03T04:18:12;9.20;;;3.75;;
68212;SDS011;55035;47.792;8.724;2023-04-03T04:20:42;10.35;;;3.85;;
68212;SDS011;55035;47.792;8.724;2023-04-03T04:23:09;10.70;;;4.73;;
68212;SDS011;55035;47.792;8.724;2023-04-03T04:25:38;9.77;;;4.18;;
68212;SDS011;55035;47.792;8.724;2023-04-03T04:28:05;13.18;;;5.30;;
68212;SDS011;55035;47.792;8.724;2023-04-03T04:30:33;10.18;;;3.63;;
68212;SDS011;55035;47.792;8.724;2023-04-03T04:33:00;8.80;;;3.65;;
68212;SDS011;55035;47.792;8.724;2023-04-03T04:35:28;8.47;;;2.83;;
68212;SDS011;55035;47.792;8.724;2023-04-03T04:37:55;6.97;;;2.67;;
68212;SDS011;55035;47.792;8.724;2023-04-03T04:40:22;8.38;;;3.88;;
68212;SDS011;55035;47.792;8.724;2023-04-03T04:42:51;8.52;;;3.20;;
68212;SDS011;55035;47.792;8.724;2023-04-03T04:45:18;10.20;;;4.07;;
68212;SDS011;55035;47.792;8.724;2023-04-03T04:47:46;9.77;;;3.70;;
68212;SDS011;55035;47.792;8.724;2023-04-03T04:50:14;9.68;;;3.83;;
68212;SDS011;55035;47.792;8.724;2023-04-03T04:52:41;8.75;;;3.65;;
68212;SDS011;55035;47.792;8.724;2023-04-03T04:55:08;9.70;;;3.95;;
68212;SDS011;55035;47.792;8.724;2023-04-03T04:57:36;7.53;;;2.92;;
68212;SDS011;55035;47.792;8.724;2023-04-03T05:00:09;7.77;;;3.07;;
68212;SDS011;55035;47.792;8.724;2023-04-03T05:02:38;7.18;;;2.83;;
68212;SDS011;55035;47.792;8.724;2023-04-03T05:05:06;7.05;;;3.03;;
68212;SDS011;55035;47.792;8.724;2023-04-03T05:07:33;8.05;;;3.85;;
68212;SDS011;55035;47.792;8.724;2023-04-03T05:10:02;7.93;;;3.10;;
68212;SDS011;55035;47.792;8.724;2023-04-03T05:12:30;7.00;;;2.33;;
68212;SDS011;55035;47.792;8.724;2023-04-03T05:14:59;9.30;;;3.00;;
68212;SDS011;55035;47.792;8.724;2023-04-03T05:17:31;5.75;;;1.95;;
68212;SDS011;55035;47.792;8.724;2023-04-03T05:19:59;9.18;;;3.30;;
68212;SDS011;55035;47.792;8.724;2023-04-03T05:22:27;9.70;;;4.30;;
68212;SDS011;55035;47.792;8.724;2023-04-03T05:24:58;11.07;;;3.93;;
68212;SDS011;55035;47.792;8.724;2023-04-03T05:27:26;8.88;;;3.28;;
68212;SDS011;55035;47.792;8.724;2023-04-03T05:29:55;9.05;;;3.90;;
68212;SDS011;55035;47.792;8.724;2023-04-03T05:32:24;7.07;;;2.97;;
68212;SDS011;55035;47.792;8.724;2023-04-03T05:35:06;7.85;;;3.03;;
68212;SDS011;55035;47.792;8.724;2023-04-03T05:37:35;8.60;;;3.13;;
68212;SDS011;55035;47.792;8.724;2023-04-03T05:40:03;9.50;;;3.90;;
68212;SDS011;55035;47.792;8.724;2023-04-03T05:42:31;10.15;;;3.55;;
68212;SDS011;55035;47.792;8.724;2023-04-03T05:44:59;9.55;;;3.63;;
68212;SDS011;55035;47.792;8.724;2023-04-03T05:47:26;10.93;;;3.70;;
68212;SDS011;55035;47.792;8.724;2023-04-03T05:49:54;8.03;;;2.77;;
68212;SDS011;55035;47.792;8.724;2023-04-03T05:52:23;7.60;;;2.42;;
68212;SDS011;55035;47.792;8.724;2023-04-03T05:54:52;9.07;;;3.70;;
68212;SDS011;55035;47.792;8.724;2023-04-03T05:57:24;9.20;;;3.60;;
68212;SDS011;55035;47.792;8.724;2023-04-03T05:59:51;10.23;;;4.03;;
68212;SDS011;55035;47.792;8.724;2023-04-03T06:02:20;10.67;;;4.50;;
68212;SDS011;55035;47.792;8.724;2023-04-03T06:04:48;9.50;;;4.30;;
68212;SDS011;55035;47.792;8.724;2023-04-03T06:07:17;9.38;;;3.45;;
68212;SDS011;55035;47.792;8.724;2023-04-03T06:09:50;8.80;;;3.20;;
68212;SDS011;55035;47.792;8.724;2023-04-03T06:12:18;10.38;;;3.67;;
68212;SDS011;55035;47.792;8.724;2023-04-03T06:14:45;12.40;;;4.30;;
68212;SDS011;55035;47.792;8.724;2023-04-03T06:17:13;10.05;;;4.07;;
68212;SDS011;55035;47.792;8.724;2023-04-03T06:19:41;9.00;;;3.95;;
68212;SDS011;55035;47.792;8.724;2023-04-03T06:22:07;8.48;;;3.05;;
68212;SDS011;55035;47.792;8.724;2023-04-03T06:24:34;9.15;;;3.50;;
68212;SDS011;55035;47.792;8.724;2023-04-03T06:27:04;10.33;;;3.93;;
68212;SDS011;55035;47.792;8.724;2023-04-03T06:29:30;9.43;;;3.92;;
68212;SDS011;55035;47.792;8.724;2023-04-03T06:31:58;9.85;;;3.95;;
68212;SDS011;55035;47.792;8.724;2023-04-03T06:34:25;10.13;;;3.90;;
68212;SDS011;55035;47.792;8.724;2023-04-03T06:36:51;9.05;;;3.78;;
68212;SDS011;55035;47.792;8.724;2023-04-03T06:39:19;10.40;;;4.03;;
68212;SDS011;55035;47.792;8.724;2023-04-03T06:41:48;11.05;;;3.72;;
68212;SDS011;55035;47.792;8.724;2023-04-03T06:44:17;9.45;;;3.92;;
68212;SDS011;55035;47.792;8.724;2023-04-03T06:46:44;9.27;;;3.78;;
68212;SDS011;55035;47.792;8.724;2023-04-03T06:49:11;9.27;;;3.90;;
68212;SDS011;55035;47.792;8.724;2023-04-03T06:51:39;10.47;;;4.30;;
68212;SDS011;55035;47.792;8.724;2023-04-03T06:54:06;11.23;;;4.03;;
68212;SDS011;55035;47.792;8.724;2023-04-03T06:56:34;11.02;;;4.10;;
68212;SDS011;55035;47.792;8.724;2023-04-03T06:59:01;8.30;;;3.50;;
68212;SDS011;55035;47.792;8.724;2023-04-03T07:01:29;9.18;;;3.65;;
68212;SDS011;55035;47.792;8.724;2023-04-03T07:03:57;8.98;;;3.40;;
68212;SDS011;55035;47.792;8.724;2023-04-03T07:06:24;11.05;;;4.10;;
68212;SDS011;55035;47.792;8.724;2023-04-03T07:08:52;15.18;;;4.80;;
68212;SDS011;55035;47.792;8.724;2023-04-03T07:11:19;9.95;;;3.92;;
68212;SDS011;55035;47.792;8.724;2023-04-03T07:13:46;9.18;;;3.53;;
68212;SDS011;55035;47.792;8.724;2023-04-03T07:16:15;9.98;;;4.13;;
68212;SDS011;55035;47.792;8.724;2023-04-03T07:18:48;8.38;;;3.70;;
68212;SDS011;55035;47.792;8.724;2023-04-03T07:21:15;8.73;;;4.00;;
68212;SDS011;55035;47.792;8.724;2023-04-03T07:23:42;8.27;;;3.47;;
68212;SDS011;55035;47.792;8.724;2023-04-03T07:26:09;8.90;;;3.65;;
68212;SDS011;55035;47.792;8.724;2023-04-03T07:28:35;7.73;;;3.23;;
68212;SDS011;55035;47.792;8.724;2023-04-03T07:31:04;9.93;;;3.33;;
68212;SDS011;55035;47.792;8.724;2023-04-03T07:33:32;8.68;;;3.50;;
68212;SDS011;55035;47.792;8.724;2023-04-03T07:36:00;7.85;;;2.83;;
68212;SDS011;55035;47.792;8.724;2023-04-03T07:38:27;11.32;;;3.20;;
68212;SDS011;55035;47.792;8.724;2023-04-03T07:40:54;7.97;;;3.50;;
68212;SDS011;55035;47.792;8.724;2023-04-03T07:43:21;7.20;;;2.70;;
68212;SDS011;55035;47.792;8.724;2023-04-03T07:45:51;8.50;;;3.63;;
68212;SDS011;55035;47.792;8.724;2023-04-03T07:48:19;7.38;;;2.78;;
68212;SDS011;55035;47.792;8.724;2023-04-03T07:50:47;8.88;;;2.80;;
68212;SDS011;55035;47.792;8.724;2023-04-03T07:53:15;7.82;;;2.70;;
68212;SDS011;55035;47.792;8.724;2023-04-03T07:55:42;5.75;;;2.25;;
68212;SDS011;55035;47.792;8.724;2023-04-03T07:58:10;7.25;;;2.58;;
68212;SDS011;55035;47.792;8.724;2023-04-03T08:00:37;7.25;;;2.40;;
68212;SDS011;55035;47.792;8.724;2023-04-03T08:03:06;5.68;;;1.88;;
68212;SDS011;55035;47.792;8.724;2023-04-03T08:05:36;6.93;;;1.67;;
68212;SDS011;55035;47.792;8.724;2023-04-03T08:08:03;6.90;;;2.50;;
68212;SDS011;55035;47.792;8.724;2023-04-03T08:10:31;6.03;;;1.65;;
68212;SDS011;55035;47.792;8.724;2023-04-03T08:12:58;5.45;;;2.08;;
68212;SDS011;55035;47.792;8.724;2023-04-03T08:15:26;5.82;;;1.90;;
68212;SDS011;55035;47.792;8.724;2023-04-03T08:17:53;6.63;;;2.28;;
68212;SDS011;55035;47.792;8.724;2023-04-03T08:20:21;6.88;;;2.63;;
68212;SDS011;55035;47.792;8.724;2023-04-03T08:22:47;8.40;;;2.92;;
68212;SDS011;55035;47.792;8.724;2023-04-03T08:25:15;6.47;;;2.28;;
68212;SDS011;55035;47.792;8.724;2023-04-03T08:27:44;6.32;;;2.22;;
68212;SDS011;55035;47.792;8.724;2023-04-03T08:30:12;8.55;;;2.67;;
68212;SDS011;55035;47.792;8.724;2023-04-03T08:32:39;6.13;;;1.90;;
68212;SDS011;55035;47.792;8.724;2023-04-03T08:35:07;7.38;;;2.65;;
68212;SDS011;55035;47.792;8.724;2023-04-03T08:37:34;6.60;;;2.30;;
68212;SDS011;55035;47.792;8.724;2023-04-03T08:40:02;5.75;;;2.25;;
68212;SDS011;55035;47.792;8.724;2023-04-03T08:42:33;7.43;;;2.63;;
68212;SDS011;55035;47.792;8.724;2023-04-03T08:45:05;7.38;;;2.00;;
68212;SDS011;55035;47.792;8.724;2023-04-03T08:47:38;8.77;;;3.30;;
68212;SDS011;55035;47.792;8.724;2023-04-03T08:50:06;6.78;;;2.30;;
68212;SDS011;55035;47.792;8.724;2023-04-03T08:52:35;7.30;;;2.03;;
68212;SDS011;55035;47.792;8.724;2023-04-03T08:55:03;5.88;;;1.70;;
68212;SDS011;55035;47.792;8.724;2023-04-03T08:57:33;6.20;;;2.58;;
68212;SDS011;55035;47.792;8.724;2023-04-03T09:00:06;6.78;;;2.05;;
68212;SDS011;55035;47.792;8.724;2023-04-03T09:02:34;6.45;;;2.30;;
68212;SDS011;55035;47.792;8.724;2023-04-03T09:05:02;6.40;;;2.40;;
68212;SDS011;55035;47.792;8.724;2023-04-03T09:07:33;8.50;;;3.17;;
68212;SDS011;55035;47.792;8.724;2023-04-03T09:10:06;7.03;;;2.38;;
68212;SDS011;55035;47.792;8.724;2023-04-03T09:12:37;7.68;;;2.47;;
68212;SDS011;55035;47.792;8.724;2023-04-03T09:15:08;7.32;;;2.42;;
68212;SDS011;55035;47.792;8.724;2023-04-03T09:17:41;7.10;;;3.00;;
68212;SDS011;55035;47.792;8.724;2023-04-03T09:20:15;7.30;;;2.65;;
68212;SDS011;55035;47.792;8.724;2023-04-03T09:22:45;7.75;;;3.30;;
68212;SDS011;55035;47.792;8.724;2023-04-03T09:25:14;6.30;;;2.45;;
68212;SDS011;55035;47.792;8.724;2023-04-03T09:27:42;7.10;;;2.80;;
68212;SDS011;55035;47.792;8.724;2023-04-03T09:30:13;7.90;;;3.13;;
68212;SDS011;55035;47.792;8.724;2023-04-03T09:32:41;7.40;;;2.63;;
68212;SDS011;55035;47.792;8.724;2023-04-03T09:35:15;7.78;;;3.30;;
68212;SDS011;55035;47.792;8.724;2023-04-03T09:37:43;6.47;;;2.15;;
68212;SDS011;55035;47.792;8.724;2023-04-03T09:42:54;8.93;;;3.13;;
68212;SDS011;55035;47.792;8.724;2023-04-03T09:45:24;8.95;;;2.90;;
68212;SDS011;55035;47.792;8.724;2023-04-03T09:48:03;6.53;;;2.70;;
68212;SDS011;55035;47.792;8.724;2023-04-03T09:50:31;7.25;;;2.60;;
68212;SDS011;55035;47.792;8.724;2023-04-03T09:52:57;7.03;;;2.72;;
68212;SDS011;55035;47.792;8.724;2023-04-03T09:55:25;7.55;;;3.03;;
68212;SDS011;55035;47.792;8.724;2023-04-03T09:57:55;6.40;;;2.50;;
68212;SDS011;55035;47.792;8.724;2023-04-03T10:00:25;6.57;;;2.10;;
68212;SDS011;55035;47.792;8.724;2023-04-03T10:02:54;7.10;;;2.92;;
68212;SDS011;55035;47.792;8.724;2023-04-03T10:05:28;7.18;;;2.38;;
68212;SDS011;55035;47.792;8.724;2023-04-03T10:08:10;6.47;;;2.30;;
68212;SDS011;55035;47.792;8.724;2023-04-03T10:10:37;6.05;;;2.30;;
68212;SDS011;55035;47.792;8.724;2023-04-03T10:13:06;6.78;;;2.53;;
68212;SDS011;55035;47.792;8.724;2023-04-03T10:15:38;6.15;;;2.42;;
68212;SDS011;55035;47.792;8.724;2023-04-03T10:18:08;5.78;;;2.05;;
68212;SDS011;55035;47.792;8.724;2023-04-03T10:20:42;7.50;;;2.90;;
68212;SDS011;55035;47.792;8.724;2023-04-03T10:23:14;8.15;;;2.83;;
68212;SDS011;55035;47.792;8.724;2023-04-03T10:25:46;7.07;;;2.58;;
68212;SDS011;55035;47.792;8.724;2023-04-03T10:28:20;7.20;;;2.22;;
68212;SDS011;55035;47.792;8.724;2023-04-03T10:30:52;7.97;;;3.08;;
68212;SDS011;55035;47.792;8.724;2023-04-03T10:33:26;8.48;;;2.45;;
68212;SDS011;55035;47.792;8.724;2023-04-03T10:36:02;8.15;;;3.13;;
68212;SDS011;55035;47.792;8.724;2023-04-03T10:38:39;6.38;;;2.30;;
68212;SDS011;55035;47.792;8.724;2023-04-03T10:41:12;6.50;;;2.60;;
68212;SDS011;55035;47.792;8.724;2023-04-03T10:43:42;5.50;;;1.90;;
68212;SDS011;55035;47.792;8.724;2023-04-03T10:46:13;6.55;;;1.90;;
68212;SDS011;55035;47.792;8.724;2023-04-03T10:48:49;7.32;;;2.33;;
68212;SDS011;55035;47.792;8.724;2023-04-03T10:51:23;5.85;;;1.95;;
68212;SDS011;55035;47.792;8.724;2023-04-03T10:53:52;6.80;;;2.70;;
68212;SDS011;55035;47.792;8.724;2023-04-03T10:56:24;6.55;;;1.90;;
68212;SDS011;55035;47.792;8.724;2023-04-03T10:58:56;8.75;;;3.10;;
68212;SDS011;55035;47.792;8.724;2023-04-03T11:01:26;6.55;;;2.22;;
68212;SDS011;55035;47.792;8.724;2023-04-03T11:03:57;7.85;;;2.83;;
68212;SDS011;55035;47.792;8.724;2023-04-03T11:06:25;7.95;;;2.75;;
68212;SDS011;55035;47.792;8.724;2023-04-03T11:08:55;7.60;;;3.08;;
68212;SDS011;55035;47.792;8.724;2023-04-03T11:11:25;7.53;;;2.42;;
68212;SDS011;55035;47.792;8.724;2023-04-03T11:13:54;6.75;;;2.65;;
68212;SDS011;55035;47.792;8.724;2023-04-03T11:16:23;7.75;;;3.40;;
68212;SDS011;55035;47.792;8.724;2023-04-03T11:18:54;6.78;;;2.45;;
68212;SDS011;55035;47.792;8.724;2023-04-03T11:21:24;5.80;;;2.13;;
68212;SDS011;55035;47.792;8.724;2023-04-03T11:23:55;6.75;;;2.47;;
68212;SDS011;55035;47.792;8.724;2023-04-03T11:26:24;7.05;;;2.03;;
68212;SDS011;55035;47.792;8.724;2023-04-03T11:28:55;8.13;;;3.40;;
68212;SDS011;55035;47.792;8.724;2023-04-03T11:31:26;6.47;;;2.63;;
68212;SDS011;55035;47.792;8.724;2023-04-03T11:33:58;8.27;;;3.35;;
68212;SDS011;55035;47.792;8.724;2023-04-03T11:36:30;6.78;;;2.65;;
68212;SDS011;55035;47.792;8.724;2023-04-03T11:38:57;9.00;;;3.67;;
68212;SDS011;55035;47.792;8.724;2023-04-03T11:41:26;8.80;;;3.03;;
68212;SDS011;55035;47.792;8.724;2023-04-03T11:43:58;9.27;;;3.47;;
68212;SDS011;55035;47.792;8.724;2023-04-03T11:51:58;7.05;;;2.30;;
68212;SDS011;55035;47.792;8.724;2023-04-03T11:54:36;7.60;;;2.70;;
68212;SDS011;55035;47.792;8.724;2023-04-03T11:57:22;9.05;;;3.47;;
68212;SDS011;55035;47.792;8.724;2023-04-03T12:02:55;8.18;;;2.72;;
68212;SDS011;55035;47.792;8.724;2023-04-03T12:05:26;13.20;;;3.92;;
68212;SDS011;55035;47.792;8.724;2023-04-03T12:10:38;7.10;;;2.88;;
68212;SDS011;55035;47.792;8.724;2023-04-03T12:13:12;7.65;;;2.70;;
68212;SDS011;55035;47.792;8.724;2023-04-03T12:15:51;6.25;;;2.05;;
68212;SDS011;55035;47.792;8.724;2023-04-03T12:21:17;7.57;;;2.85;;
68212;SDS011;55035;47.792;8.724;2023-04-03T12:24:00;7.78;;;2.70;;
68212;SDS011;55035;47.792;8.724;2023-04-03T12:26:31;5.93;;;2.22;;
68212;SDS011;55035;47.792;8.724;2023-04-03T12:28:58;6.57;;;2.55;;
68212;SDS011;55035;47.792;8.724;2023-04-03T12:31:36;7.15;;;2.53;;
68212;SDS011;55035;47.792;8.724;2023-04-03T12:34:11;6.63;;;2.50;;
68212;SDS011;55035;47.792;8.724;2023-04-03T12:36:43;11.15;;;3.42;;
68212;SDS011;55035;47.792;8.724;2023-04-03T12:39:31;9.27;;;2.88;;
68212;SDS011;55035;47.792;8.724;2023-04-03T12:42:20;7.43;;;2.63;;
68212;SDS011;55035;47.792;8.724;2023-04-03T12:44:53;6.13;;;1.88;;
68212;SDS011;55035;47.792;8.724;2023-04-03T12:47:28;5.20;;;1.77;;
68212;SDS011;55035;47.792;8.724;2023-04-03T12:49:59;6.30;;;2.08;;
68212;SDS011;55035;47.792;8.724;2023-04-03T12:52:31;6.95;;;2.20;;
68212;SDS011;55035;47.792;8.724;2023-04-03T12:55:01;7.53;;;2.58;;
68212;SDS011;55035;47.792;8.724;2023-04-03T12:57:33;6.95;;;2.88;;
68212;SDS011;55035;47.792;8.724;2023-04-03T13:00:18;8.18;;;2.60;;
68212;SDS011;55035;47.792;8.724;2023-04-03T13:02:46;6.45;;;2.40;;
68212;SDS011;55035;47.792;8.724;2023-04-03T13:05:15;9.27;;;2.42;;
68212;SDS011;55035;47.792;8.724;2023-04-03T13:07:42;7.68;;;2.92;;
68212;SDS011;55035;47.792;8.724;2023-04-03T13:12:47;6.88;;;2.42;;
68212;SDS011;55035;47.792;8.724;2023-04-03T13:15:15;6.70;;;2.60;;
68212;SDS011;55035;47.792;8.724;2023-04-03T13:17:44;8.80;;;2.10;;
68212;SDS011;55035;47.792;8.724;2023-04-03T13:20:13;6.60;;;2.17;;
68212;SDS011;55035;47.792;8.724;2023-04-03T13:22:47;6.35;;;2.17;;
68212;SDS011;55035;47.792;8.724;2023-04-03T13:25:15;5.20;;;1.80;;
68212;SDS011;55035;47.792;8.724;2023-04-03T13:27:43;6.15;;;1.95;;
68212;SDS011;55035;47.792;8.724;2023-04-03T13:30:23;5.28;;;1.80;;
68212;SDS011;55035;47.792;8.724;2023-04-03T13:32:54;5.72;;;1.65;;
68212;SDS011;55035;47.792;8.724;2023-04-03T13:35:25;6.07;;;1.80;;
68212;SDS011;55035;47.792;8.724;2023-04-03T13:37:55;6.72;;;2.70;;
68212;SDS011;55035;47.792;8.724;2023-04-03T13:40:21;5.93;;;2.53;;
68212;SDS011;55035;47.792;8.724;2023-04-03T13:42:58;6.55;;;2.28;;
68212;SDS011;55035;47.792;8.724;2023-04-03T13:45:27;5.70;;;2.00;;
68212;SDS011;55035;47.792;8.724;2023-04-03T13:48:07;5.65;;;1.92;;
68212;SDS011;55035;47.792;8.724;2023-04-03T13:50:49;5.97;;;1.88;;
68212;SDS011;55035;47.792;8.724;2023-04-03T13:53:17;5.40;;;1.75;;
68212;SDS011;55035;47.792;8.724;2023-04-03T13:55:53;5.50;;;1.90;;
68212;SDS011;55035;47.792;8.724;2023-04-03T13:58:23;8.38;;;2.85;;
68212;SDS011;55035;47.792;8.724;2023-04-03T14:00:52;6.95;;;2.58;;
68212;SDS011;55035;47.792;8.724;2023-04-03T14:03:20;6.85;;;2.38;;
68212;SDS011;55035;47.792;8.724;2023-04-03T14:05:48;6.43;;;2.38;;
68212;SDS011;55035;47.792;8.724;2023-04-03T14:08:15;6.90;;;2.63;;
68212;SDS011;55035;47.792;8.724;2023-04-03T14:10:42;7.32;;;2.50;;
68212;SDS011;55035;47.792;8.724;2023-04-03T14:13:11;6.70;;;2.58;;
68212;SDS011;55035;47.792;8.724;2023-04-03T14:15:38;6.75;;;2.17;;
68212;SDS011;55035;47.792;8.724;2023-04-03T14:18:06;7.07;;;2.63;;
68212;SDS011;55035;47.792;8.724;2023-04-03T14:20:33;6.85;;;2.60;;
68212;SDS011;55035;47.792;8.724;2023-04-03T14:22:59;5.90;;;2.13;;
68212;SDS011;55035;47.792;8.724;2023-04-03T14:25:28;6.60;;;2.58;;
68212;SDS011;55035;47.792;8.724;2023-04-03T14:27:56;7.35;;;2.50;;
68212;SDS011;55035;47.792;8.724;2023-04-03T14:30:24;7.93;;;2.63;;
68212;SDS011;55035;47.792;8.724;2023-04-03T14:32:51;7.90;;;3.30;;
68212;SDS011;55035;47.792;8.724;2023-04-03T14:35:20;6.22;;;2.05;;
68212;SDS011;55035;47.792;8.724;2023-04-03T14:37:47;8.20;;;2.15;;
68212;SDS011;55035;47.792;8.724;2023-04-03T14:40:15;6.93;;;2.70;;
68212;SDS011;55035;47.792;8.724;2023-04-03T14:42:43;7.70;;;2.33;;
68212;SDS011;55035;47.792;8.724;2023-04-03T14:45:10;6.70;;;2.50;;
68212;SDS011;55035;47.792;8.724;2023-04-03T14:47:39;6.93;;;2.60;;
68212;SDS011;55035;47.792;8.724;2023-04-03T14:50:07;6.22;;;2.05;;
68212;SDS011;55035;47.792;8.724;2023-04-03T14:52:36;6.72;;;2.40;;
68212;SDS011;55035;47.792;8.724;2023-04-03T14:55:05;7.38;;;2.53;;
68212;SDS011;55035;47.792;8.724;2023-04-03T14:57:32;5.90;;;2.40;;
68212;SDS011;55035;47.792;8.724;2023-04-03T14:59:59;7.28;;;2.90;;
68212;SDS011;55035;47.792;8.724;2023-04-03T15:02:28;6.57;;;2.60;;
68212;SDS011;55035;47.792;8.724;2023-04-03T15:04:55;6.35;;;2.70;;
68212;SDS011;55035;47.792;8.724;2023-04-03T15:07:23;7.05;;;2.67;;
68212;SDS011;55035;47.792;8.724;2023-04-03T15:09:51;8.18;;;2.83;;
68212;SDS011;55035;47.792;8.724;2023-04-03T15:12:18;6.22;;;2.00;;
68212;SDS011;55035;47.792;8.724;2023-04-03T15:14:46;7.38;;;3.13;;
68212;SDS011;55035;47.792;8.724;2023-04-03T15:17:14;7.13;;;2.70;;